Time;durP1;ratioP1;P1;durP2;ratioP2;P2;SDS_P1;SDS_P2;PMS_P1;PMS_P2;Temp;Humidity;BMP_temperature;BMP_pressure;BME280_temperature;BME280_humidity;BME280_pressure;Samples;Min_cycle;Max_cycle;Signal;HPM_P1;HPM_P2
2022/09/20 00:00:24;;;;;;;6.50;1.73;;;;;;;12.53;70.89;100939.06;5112168;28;20732;-82
2022/09/20 00:02:49;;;;;;;5.20;2.13;;;;;;;12.53;70.43;100942.59;5093628;28;20457;-81
2022/09/20 00:05:14;;;;;;;3.97;2.33;;;;;;;12.52;70.54;100940.13;5112369;28;20382;-82
2022/09/20 00:07:43;;;;;;;5.63;1.87;;;;;;;12.51;70.56;100938.47;5098187;28;20794;-82
2022/09/20 00:10:09;;;;;;;4.63;1.85;;;;;;;12.44;70.66;100942.19;5111812;28;20859;-82
2022/09/20 00:12:34;;;;;;;3.20;2.10;;;;;;;12.33;71.03;100945.78;5081278;28;20479;-81
2022/09/20 00:14:59;;;;;;;3.70;1.90;;;;;;;12.36;70.88;100942.56;5099201;28;20384;-82
2022/09/20 00:17:24;;;;;;;5.50;2.03;;;;;;;12.32;70.89;100948.72;5093050;28;20785;-82
2022/09/20 00:19:49;;;;;;;2.50;1.88;;;;;;;12.33;70.96;100947.69;5093098;28;20392;-82
2022/09/20 00:22:15;;;;;;;4.87;1.83;;;;;;;12.32;70.55;100946.84;5111372;28;20492;-82
2022/09/20 00:24:41;;;;;;;4.43;1.93;;;;;;;12.34;70.49;100952.88;5094206;28;20884;-82
2022/09/20 00:27:06;;;;;;;3.92;2.00;;;;;;;12.33;70.83;100950.41;5104226;28;20415;-81
2022/09/20 00:29:32;;;;;;;2.60;1.93;;;;;;;12.30;70.88;100940.84;5093202;28;20871;-82
2022/09/20 00:31:57;;;;;;;3.93;2.27;;;;;;;12.26;71.00;100928.81;5111674;28;20384;-82
2022/09/20 00:37:06;;;;;;;5.50;2.30;;;;;;;12.26;70.72;100938.84;5111206;28;20441;-82
2022/09/20 00:39:31;;;;;;;3.43;2.00;;;;;;;12.29;71.06;100936.47;5111503;28;20393;-82
2022/09/20 00:41:57;;;;;;;6.70;2.10;;;;;;;12.33;70.42;100934.91;5108846;28;20894;-82
2022/09/20 00:44:44;;;;;;;4.90;1.90;;;;;;;12.35;70.37;100943.63;5114144;28;20399;-82
2022/09/20 00:47:30;;;;;;;2.88;2.00;;;;;;;12.34;70.51;100942.00;5115187;28;20385;-82
2022/09/20 00:50:04;;;;;;;3.80;1.75;;;;;;;12.32;70.59;100937.88;5115566;28;20755;-82
2022/09/20 00:52:31;;;;;;;5.07;1.98;;;;;;;12.34;70.08;100943.91;5097282;28;20456;-82
2022/09/20 00:54:59;;;;;;;5.37;1.97;;;;;;;12.33;70.40;100940.34;5115027;28;20392;-81
2022/09/20 00:57:25;;;;;;;2.27;1.80;;;;;;;12.23;70.71;100942.88;5115434;28;20392;-81
2022/09/20 00:59:52;;;;;;;3.37;1.93;;;;;;;12.18;70.80;100937.38;5106944;28;20441;-82
2022/09/20 01:02:23;;;;;;;4.85;1.65;;;;;;;12.15;70.57;100939.75;5115277;28;20419;-82
2022/09/20 01:04:49;;;;;;;4.05;1.70;;;;;;;12.13;70.71;100945.41;5096630;28;20420;-82
2022/09/20 01:07:21;;;;;;;3.40;1.73;;;;;;;12.15;70.70;100942.47;5115286;28;20471;-81
2022/09/20 01:09:46;;;;;;;3.95;1.50;;;;;;;12.16;70.45;100938.66;5115286;28;20479;-82
2022/09/20 01:12:20;;;;;;;2.80;1.73;;;;;;;12.19;70.60;100930.84;5091260;28;20465;-82
2022/09/20 01:14:49;;;;;;;2.92;1.60;;;;;;;12.23;70.14;100942.06;5113513;28;20391;-82
2022/09/20 01:17:18;;;;;;;5.72;1.52;;;;;;;12.25;70.35;100945.38;5102602;28;20384;-82
2022/09/20 01:20:11;;;;;;;4.30;1.85;;;;;;;12.28;70.23;100942.97;5115091;28;20403;-82
2022/09/20 01:23:13;;;;;;;3.10;1.35;;;;;;;12.27;69.98;100929.63;5114238;28;20416;-82
2022/09/20 01:25:57;;;;;;;3.90;1.83;;;;;;;12.28;69.89;100937.53;5114988;28;20376;-82
2022/09/20 01:28:25;;;;;;;6.60;1.77;;;;;;;12.27;70.07;100929.63;5114483;28;20438;-82
2022/09/20 01:31:03;;;;;;;3.45;1.10;;;;;;;12.27;70.07;100938.63;5114846;28;20392;-82
2022/09/20 01:33:51;;;;;;;3.47;1.48;;;;;;;12.28;70.26;100940.25;5090635;28;20458;-82
2022/09/20 01:36:27;;;;;;;5.43;1.65;;;;;;;12.16;70.71;100944.91;5099158;28;20388;-82
2022/09/20 01:39:17;;;;;;;1.83;1.42;;;;;;;12.12;70.88;100938.31;5114655;28;20395;-82
2022/09/20 01:41:56;;;;;;;5.85;2.10;;;;;;;12.11;71.19;100944.84;5096119;28;20435;-82
2022/09/20 01:44:37;;;;;;;3.78;2.20;;;;;;;12.14;71.07;100935.38;5114498;28;20738;-82
2022/09/20 01:47:15;;;;;;;4.40;1.65;;;;;;;12.23;70.21;100934.72;5114540;28;20410;-82
2022/09/20 01:49:43;;;;;;;3.67;1.85;;;;;;;12.23;70.01;100936.63;5105592;28;20394;-82
2022/09/20 01:52:42;;;;;;;6.22;1.73;;;;;;;12.20;70.14;100924.34;5114380;28;20392;-82
2022/09/20 01:55:26;;;;;;;3.22;1.48;;;;;;;12.18;70.33;100933.81;5113631;28;20934;-82
2022/09/20 01:58:22;;;;;;;5.03;1.20;;;;;;;12.18;70.08;100939.25;5113850;28;20882;-82
2022/09/20 02:01:16;;;;;;;6.05;1.65;;;;;;;12.11;70.48;100935.84;5114202;28;20396;-82
2022/09/20 02:04:08;;;;;;;3.50;1.77;;;;;;;12.00;70.88;100942.97;5104218;28;20767;-82
2022/09/20 02:06:45;;;;;;;4.43;1.67;;;;;;;11.86;71.33;100934.28;5098749;28;20391;-80
2022/09/20 02:09:35;;;;;;;3.72;1.52;;;;;;;11.88;71.76;100940.31;5103401;28;20388;-82
2022/09/20 02:12:32;;;;;;;3.55;1.80;;;;;;;11.95;71.54;100943.69;5091616;28;20469;-82
2022/09/20 02:15:11;;;;;;;2.78;1.48;;;;;;;11.91;71.62;100942.56;5091399;28;20393;-82
2022/09/20 02:18:08;;;;;;;4.28;1.70;;;;;;;11.86;71.86;100941.63;5095229;28;20419;-82
2022/09/20 02:20:56;;;;;;;6.23;1.70;;;;;;;11.80;72.05;100937.97;5103627;28;20396;-82
2022/09/20 02:24:18;;;;;;;5.70;2.15;;;;;;;11.80;72.16;100932.56;5108537;28;20440;-81
2022/09/20 02:27:05;;;;;;;6.90;1.90;;;;;;;11.84;71.89;100927.47;4994653;28;20911;-82
2022/09/20 02:30:08;;;;;;;3.60;1.55;;;;;;;11.74;72.23;100936.22;5010986;28;20393;-82
2022/09/20 02:32:55;;;;;;;5.75;1.70;;;;;;;11.66;72.66;100941.16;5111895;28;20388;-81
2022/09/20 02:35:49;;;;;;;4.97;1.60;;;;;;;11.62;72.79;100935.41;5113279;28;20982;-82
2022/09/20 02:38:52;;;;;;;7.43;1.65;;;;;;;11.60;72.98;100933.97;5095199;28;20393;-82
2022/09/20 02:41:36;;;;;;;4.20;1.70;;;;;;;11.60;73.07;100934.81;5102415;28;20843;-82
2022/09/20 02:44:16;;;;;;;5.43;1.70;;;;;;;11.61;72.77;100936.47;5113368;28;20389;-82
2022/09/20 02:47:05;;;;;;;7.07;1.70;;;;;;;11.66;72.53;100935.72;5113215;28;20388;-81
2022/09/20 02:49:43;;;;;;;4.17;1.63;;;;;;;11.74;72.22;100933.53;5091735;28;20447;-82
2022/09/20 02:52:31;;;;;;;4.25;1.90;;;;;;;11.77;72.46;100935.75;5105182;28;20412;-82
2022/09/20 02:55:31;;;;;;;7.22;1.77;;;;;;;11.74;72.16;100940.84;5112812;28;20398;-82
2022/09/20 02:58:23;;;;;;;3.35;1.77;;;;;;;11.62;72.74;100940.03;5085056;28;20490;-82
2022/09/20 03:00:58;;;;;;;5.13;2.30;;;;;;;11.70;72.75;100943.22;5111268;27;20428;-82
2022/09/20 03:03:58;;;;;;;4.78;1.67;;;;;;;11.74;72.48;100944.38;5105452;28;20458;-82
2022/09/20 03:07:17;;;;;;;5.60;2.00;;;;;;;11.63;72.79;100953.34;5070112;28;20398;-82
2022/09/20 03:10:09;;;;;;;9.30;1.98;;;;;;;11.62;73.40;100951.72;5076444;28;20406;-82
2022/09/20 03:13:18;;;;;;;3.63;1.80;;;;;;;11.71;73.17;100952.19;5104078;28;20477;-81
2022/09/20 03:16:07;;;;;;;7.22;1.73;;;;;;;11.69;73.00;100960.50;5097802;28;20453;-82
2022/09/20 03:18:41;;;;;;;6.73;2.00;;;;;;;11.64;73.19;100952.28;5079886;28;20415;-82
2022/09/20 03:21:27;;;;;;;3.90;1.60;;;;;;;11.62;73.37;100965.28;5112504;28;20388;-82
2022/09/20 03:24:14;;;;;;;7.25;2.15;;;;;;;11.64;73.36;100956.88;5098929;28;20480;-82
2022/09/20 03:26:51;;;;;;;4.50;1.70;;;;;;;11.69;73.22;100965.16;5097113;28;20441;-82
2022/09/20 03:29:29;;;;;;;4.47;1.40;;;;;;;11.73;73.15;100961.72;5094198;28;20396;-82
2022/09/20 03:32:27;;;;;;;5.05;1.48;;;;;;;11.69;73.15;100957.00;5090488;28;20415;-81
2022/09/20 03:35:13;;;;;;;3.25;1.52;;;;;;;11.66;73.12;100963.72;5080930;28;20411;-81
2022/09/20 03:37:53;;;;;;;6.27;1.47;;;;;;;11.71;73.00;100965.75;5100850;28;20952;-81
2022/09/20 03:40:27;;;;;;;5.00;1.70;;;;;;;11.70;73.08;100964.94;5104607;28;20466;-82
2022/09/20 03:42:57;;;;;;;3.67;1.80;;;;;;;11.67;73.16;100961.84;5085913;28;20407;-82
2022/09/20 03:45:32;;;;;;;5.03;2.10;;;;;;;11.74;73.03;100959.84;5092789;28;20418;-82
2022/09/20 03:48:28;;;;;;;5.80;2.13;;;;;;;11.88;72.61;100961.22;5085891;28;20747;-82
2022/09/20 03:51:24;;;;;;;5.70;2.10;;;;;;;11.78;72.69;100967.28;5059492;28;20916;-83
2022/09/20 03:53:58;;;;;;;9.68;1.92;;;;;;;11.69;73.03;100967.88;5086657;28;20396;-82
2022/09/20 03:56:42;;;;;;;5.72;3.67;;;;;;;11.72;73.09;100978.28;5091546;28;20396;-82
2022/09/20 03:59:35;;;;;;;4.15;2.60;;;;;;;11.77;72.92;100979.19;5111068;28;20407;-82
2022/09/20 04:02:15;;;;;;;10.07;3.45;;;;;;;11.77;72.73;100979.19;5111870;28;20914;-82
2022/09/20 04:05:31;;;;;;;6.55;2.20;;;;;;;11.67;73.11;100972.69;5106737;28;20440;-82
2022/09/20 04:07:59;;;;;;;2.45;1.60;;;;;;;11.67;73.03;100976.22;5013556;28;20502;-82
2022/09/20 04:11:04;;;;;;;5.03;1.80;;;;;;;11.72;73.02;100976.34;5002221;28;20414;-82
2022/09/20 04:13:49;;;;;;;6.47;2.13;;;;;;;11.86;72.68;100977.75;5049851;28;20439;-82
2022/09/20 04:16:29;;;;;;;7.70;2.40;;;;;;;11.88;72.34;100972.09;5093688;28;20399;-81
2022/09/20 04:19:00;;;;;;;4.85;2.10;;;;;;;11.75;72.79;100966.94;5081299;28;20889;-81
2022/09/20 04:21:55;;;;;;;10.63;2.63;;;;;;;11.77;72.89;100971.06;5079932;28;20412;-82
2022/09/20 04:24:27;;;;;;;7.10;2.08;;;;;;;11.76;72.85;100974.81;5074063;28;20541;-81
2022/09/20 04:27:11;;;;;;;3.28;1.90;;;;;;;11.73;72.99;100971.75;5071647;28;20769;-82
2022/09/20 04:29:46;;;;;;;3.95;2.10;;;;;;;11.68;73.11;100977.91;5080949;28;20863;-81
2022/09/20 04:32:34;;;;;;;6.95;1.90;;;;;;;11.76;72.92;100982.97;5090543;28;20418;-82
2022/09/20 04:38:13;;;;;;;9.82;2.55;;;;;;;11.74;72.99;100979.69;5078466;28;20395;-80
2022/09/20 04:41:15;;;;;;;5.95;2.38;;;;;;;11.70;73.39;100983.06;5089726;28;20435;-81
2022/09/20 04:43:53;;;;;;;9.05;2.40;;;;;;;11.67;73.54;100978.94;5098387;28;20416;-82
2022/09/20 04:46:50;;;;;;;5.68;2.58;;;;;;;11.69;73.30;100984.16;5098200;28;20404;-81
2022/09/20 04:49:32;;;;;;;5.53;2.00;;;;;;;11.67;73.34;100978.13;5094874;28;20405;-81
2022/09/20 04:52:22;;;;;;;7.22;2.10;;;;;;;11.77;73.21;100978.38;5098374;28;20396;-81
2022/09/20 04:54:59;;;;;;;7.15;2.20;;;;;;;11.81;73.04;100977.66;5088052;28;20407;-82
2022/09/20 04:57:41;;;;;;;4.67;2.00;;;;;;;11.81;72.90;100998.56;5094718;28;20493;-83
2022/09/20 05:00:18;;;;;;;6.53;1.80;;;;;;;11.83;72.81;100996.41;5098316;28;20429;-83
2022/09/20 05:03:25;;;;;;;8.03;1.60;;;;;;;11.91;72.00;100996.03;5083769;28;20769;-83
2022/09/20 05:06:18;;;;;;;4.80;1.55;;;;;;;11.88;71.86;100999.25;5106259;28;20463;-83
2022/09/20 05:08:55;;;;;;;7.78;1.67;;;;;;;11.78;72.02;100999.03;5092312;28;20399;-83
2022/09/20 05:11:42;;;;;;;8.15;1.70;;;;;;;11.68;72.15;101006.94;5091293;28;20402;-83
2022/09/20 05:14:38;;;;;;;7.57;2.20;;;;;;;11.59;72.76;101014.59;5076841;28;20486;-82
2022/09/20 05:17:20;;;;;;;6.10;1.65;;;;;;;11.52;72.98;101013.09;5092595;28;20400;-83
2022/09/20 05:20:21;;;;;;;3.78;1.80;;;;;;;11.56;72.72;101008.84;5090340;28;20729;-82
2022/09/20 05:23:08;;;;;;;6.55;1.85;;;;;;;11.62;72.39;101024.19;5076120;28;21007;-85
2022/09/20 05:25:55;;;;;;;4.25;1.85;;;;;;;11.60;72.74;101026.28;5085369;28;20435;-84
2022/09/20 05:28:32;;;;;;;4.55;2.10;;;;;;;11.59;72.75;101027.38;5109252;28;20480;-84
2022/09/20 05:31:05;;;;;;;10.18;2.70;;;;;;;11.67;72.65;101035.13;5108926;28;20376;-84
2022/09/20 05:33:58;;;;;;;4.70;2.40;;;;;;;11.75;72.62;101027.50;5107203;28;20397;-84
2022/09/20 05:36:44;;;;;;;6.03;1.85;;;;;;;11.73;72.55;101035.03;5114704;28;20388;-84
2022/09/20 05:39:15;;;;;;;6.40;1.67;;;;;;;11.67;72.96;101038.69;5114595;28;20874;-83
2022/09/20 05:42:28;;;;;;;3.75;1.90;;;;;;;11.74;72.92;101030.44;5106965;28;20413;-83
2022/09/20 05:45:22;;;;;;;4.00;1.77;;;;;;;11.73;73.09;101028.78;5094828;28;20495;-84
2022/09/20 05:47:50;;;;;;;3.17;1.98;;;;;;;11.86;72.79;101025.81;5094190;28;20445;-84
2022/09/20 05:50:36;;;;;;;3.47;1.90;;;;;;;11.92;72.59;101031.09;5114430;28;20380;-84
2022/09/20 05:53:44;;;;;;;6.82;1.98;;;;;;;11.88;72.97;101029.94;5108574;28;20408;-84
2022/09/20 05:56:25;;;;;;;11.45;4.55;;;;;;;11.87;72.83;101039.16;5084345;28;20399;-84
2022/09/20 05:59:10;;;;;;;8.93;4.40;;;;;;;11.95;72.89;101032.53;5114300;28;20736;-84
2022/09/20 06:02:05;;;;;;;9.45;5.05;;;;;;;11.95;72.69;101033.34;5110005;28;20417;-84
2022/09/20 06:05:13;;;;;;;6.55;2.67;;;;;;;12.06;72.62;101034.38;5070903;28;20412;-84
2022/09/20 06:07:53;;;;;;;5.15;2.53;;;;;;;12.13;72.28;101034.25;5084401;28;20390;-84
2022/09/20 06:10:50;;;;;;;6.68;2.60;;;;;;;12.18;72.46;101046.06;5114054;28;20384;-84
2022/09/20 06:13:44;;;;;;;7.95;2.20;;;;;;;12.03;72.89;101045.72;5088773;28;20464;-83
2022/09/20 06:16:20;;;;;;;3.42;1.70;;;;;;;12.05;72.84;101040.91;5113975;28;20908;-83
2022/09/20 06:19:03;;;;;;;6.00;1.83;;;;;;;12.03;72.92;101037.56;5095442;28;20868;-83
2022/09/20 06:21:47;;;;;;;6.45;2.35;;;;;;;12.08;72.86;101043.13;5104015;28;20419;-82
2022/09/20 06:24:32;;;;;;;6.32;2.03;;;;;;;12.12;72.62;101043.47;5092331;28;20408;-83
2022/09/20 06:27:03;;;;;;;6.90;2.22;;;;;;;12.13;72.66;101045.09;5113663;28;20380;-83
2022/09/20 06:29:33;;;;;;;5.43;2.23;;;;;;;12.12;72.63;101036.13;5081675;28;20424;-84
2022/09/20 06:31:59;;;;;;;5.70;2.25;;;;;;;12.17;72.69;101044.41;5107360;28;20987;-84
2022/09/20 06:34:26;;;;;;;7.40;2.00;;;;;;;12.39;72.17;101044.53;5089613;28;20412;-84
2022/09/20 06:42:59;;;;;;;10.25;2.20;;;;;;;12.59;71.21;101046.81;5111012;28;20929;-83
2022/09/20 06:45:25;;;;;;;6.75;2.20;;;;;;;12.55;71.51;101046.47;5113283;28;20425;-83
2022/09/20 06:47:50;;;;;;;7.10;2.87;;;;;;;12.60;71.91;101046.59;5113249;28;20385;-84
2022/09/20 06:50:16;;;;;;;6.27;2.73;;;;;;;12.63;71.48;101050.72;5101479;28;20887;-84
2022/09/20 06:52:44;;;;;;;6.15;2.33;;;;;;;12.57;71.82;101049.81;5110179;28;20408;-84
2022/09/20 06:55:20;;;;;;;5.95;2.42;;;;;;;12.51;71.79;101048.06;5103711;28;20396;-84
2022/09/20 06:57:45;;;;;;;8.82;2.65;;;;;;;12.56;71.92;101047.31;5093764;28;20384;-84
2022/09/20 07:00:14;;;;;;;6.97;2.60;;;;;;;12.65;71.52;101052.09;5102353;28;20436;-84
2022/09/20 07:02:40;;;;;;;11.82;3.03;;;;;;;12.64;71.37;101052.38;5108357;28;20458;-84
2022/09/20 07:05:06;;;;;;;5.95;2.92;;;;;;;12.68;71.39;101051.63;5112939;28;20834;-84
2022/09/20 07:07:31;;;;;;;6.72;2.05;;;;;;;12.81;70.59;101059.47;5113015;28;20740;-83
2022/09/20 07:09:57;;;;;;;6.87;2.60;;;;;;;13.14;69.62;101063.34;5103206;28;20409;-84
2022/09/20 07:12:23;;;;;;;8.90;2.67;;;;;;;12.89;70.42;101069.13;5098020;28;20399;-83
2022/09/20 07:14:49;;;;;;;7.05;2.30;;;;;;;12.82;70.98;101063.03;5112773;28;20404;-83
2022/09/20 07:17:14;;;;;;;9.57;2.93;;;;;;;12.85;70.93;101063.34;5112759;28;20728;-84
2022/09/20 07:19:40;;;;;;;5.93;2.67;;;;;;;12.87;71.05;101066.69;5088478;28;20409;-83
2022/09/20 07:22:05;;;;;;;6.33;2.00;;;;;;;12.81;70.85;101059.47;5108317;28;20428;-83
2022/09/20 07:24:31;;;;;;;9.27;2.37;;;;;;;12.74;71.43;101064.25;5112397;28;20454;-83
2022/09/20 07:26:59;;;;;;;5.10;2.63;;;;;;;12.74;71.48;101061.53;5112551;28;20395;-83
2022/09/20 07:29:26;;;;;;;9.38;2.50;;;;;;;12.89;71.26;101063.69;5100168;28;20878;-84
2022/09/20 07:31:51;;;;;;;7.70;2.28;;;;;;;13.01;71.04;101057.09;5095819;28;20497;-84
2022/09/20 07:34:19;;;;;;;8.43;2.30;;;;;;;13.08;70.63;101065.09;5111694;28;20747;-84
2022/09/20 07:36:46;;;;;;;6.47;2.00;;;;;;;13.07;70.40;101062.66;5112356;28;20395;-84
2022/09/20 07:39:11;;;;;;;7.03;2.00;;;;;;;13.07;70.39;101062.66;5112301;28;20475;-84
2022/09/20 07:41:36;;;;;;;7.27;2.37;;;;;;;13.09;70.11;101069.53;5084652;28;20476;-85
2022/09/20 07:44:20;;;;;;;7.50;2.00;;;;;;;13.14;69.95;101075.03;5111889;28;20435;-84
2022/09/20 07:46:50;;;;;;;5.93;2.70;;;;;;;13.14;69.18;101069.59;5094161;28;20423;-85
2022/09/20 07:49:16;;;;;;;4.30;1.83;;;;;;;13.14;69.07;101072.31;5096224;28;20391;-85
2022/09/20 07:51:41;;;;;;;5.77;2.67;;;;;;;13.15;69.01;101078.59;5089849;28;20385;-84
2022/09/20 07:54:09;;;;;;;4.43;2.40;;;;;;;13.15;68.96;101082.13;5111987;28;20732;-84
2022/09/20 07:56:35;;;;;;;6.85;2.70;;;;;;;13.18;68.39;101091.69;5111978;28;20395;-84
2022/09/20 07:59:00;;;;;;;5.18;2.20;;;;;;;13.16;68.59;101083.78;5112073;28;20380;-84
2022/09/20 08:01:26;;;;;;;4.90;2.20;;;;;;;13.18;68.41;101089.81;5105039;28;20404;-84
2022/09/20 08:03:51;;;;;;;5.03;2.27;;;;;;;13.21;68.62;101086.59;5099169;28;20456;-84
2022/09/20 08:06:17;;;;;;;10.87;2.40;;;;;;;13.23;69.21;101086.34;5107222;28;21019;-84
2022/09/20 08:08:43;;;;;;;4.82;2.22;;;;;;;13.22;69.45;101087.41;5096726;28;20390;-84
2022/09/20 08:11:13;;;;;;;4.47;2.13;;;;;;;13.27;69.32;101082.88;5082636;28;20406;-83
2022/09/20 08:13:40;;;;;;;4.70;2.15;;;;;;;13.30;69.59;101082.41;5083712;28;20384;-85
2022/09/20 08:16:09;;;;;;;9.30;3.20;;;;;;;13.34;69.62;101080.81;5069238;28;20422;-84
2022/09/20 08:18:34;;;;;;;5.22;2.13;;;;;;;13.37;69.18;101085.75;5094916;28;20435;-82
2022/09/20 08:21:06;;;;;;;6.35;2.45;;;;;;;13.38;69.38;101083.88;5087915;28;20415;-85
2022/09/20 08:23:39;;;;;;;5.95;2.03;;;;;;;13.41;69.52;101089.66;5066649;28;20473;-83
2022/09/20 08:26:07;;;;;;;3.65;2.33;;;;;;;13.44;69.72;101091.03;5100943;28;20420;-83
2022/09/20 08:28:33;;;;;;;5.93;1.73;;;;;;;13.51;69.28;101095.25;5083289;28;20487;-84
2022/09/20 08:31:35;;;;;;;5.20;1.95;;;;;;;13.65;68.72;101098.47;5105114;28;20735;-83
2022/09/20 08:34:02;;;;;;;5.70;2.10;;;;;;;13.72;68.59;101099.13;5094367;28;20399;-83
2022/09/20 08:36:29;;;;;;;6.47;1.42;;;;;;;13.90;67.53;101089.81;5088518;28;20411;-84
2022/09/20 08:38:56;;;;;;;5.78;1.65;;;;;;;13.89;67.33;101096.38;5101435;28;20467;-84
2022/09/20 08:41:29;;;;;;;4.97;1.60;;;;;;;13.85;67.34;101097.94;5100783;28;20467;-84
2022/09/20 08:44:03;;;;;;;4.73;1.87;;;;;;;13.80;67.19;101085.06;5111426;28;20492;-83
2022/09/20 08:46:33;;;;;;;6.00;1.70;;;;;;;13.80;67.55;101085.06;5109157;28;20467;-84
2022/09/20 08:48:58;;;;;;;4.30;1.58;;;;;;;13.84;67.87;101088.09;5110055;28;20729;-83
2022/09/20 08:51:30;;;;;;;3.00;1.50;;;;;;;13.88;67.43;101081.91;5070745;28;20472;-82
2022/09/20 08:53:57;;;;;;;9.10;2.10;;;;;;;13.92;67.41;101087.69;5099501;28;20479;-83
2022/09/20 08:56:29;;;;;;;9.52;1.50;;;;;;;13.95;67.57;101093.47;5102031;28;20384;-83
2022/09/20 08:58:57;;;;;;;8.07;2.20;;;;;;;14.10;66.92;101094.72;5093646;28;20396;-82
2022/09/20 09:01:24;;;;;;;5.75;1.63;;;;;;;14.35;65.87;101085.00;5106787;28;20530;-82
2022/09/20 09:03:51;;;;;;;6.97;1.70;;;;;;;14.63;65.38;101089.41;5094065;28;20416;-81
2022/09/20 09:06:21;;;;;;;4.78;1.42;;;;;;;14.71;65.11;101088.97;5110791;28;20390;-81
2022/09/20 09:08:52;;;;;;;5.88;1.55;;;;;;;14.72;65.19;101081.59;5072518;28;20424;-80
2022/09/20 09:11:19;;;;;;;5.82;1.40;;;;;;;14.80;64.25;101087.41;5103923;28;20926;-82
2022/09/20 09:14:46;;;;;;;6.35;1.63;;;;;;;14.87;62.87;101082.56;5063572;28;20405;-82
2022/09/20 09:16:52;;;;;;;4.60;1.50;;;;;;;14.99;62.52;101090.59;5085809;28;20431;-82
2022/09/20 09:19:26;;;;;;;4.25;1.40;;;;;;;15.04;61.04;101080.56;5108201;28;20382;-82
2022/09/20 09:21:59;;;;;;;4.55;1.30;;;;;;;15.11;60.93;101087.72;5095290;28;20418;-82
2022/09/20 09:24:24;;;;;;;5.68;1.25;;;;;;;15.11;60.21;101083.06;5105269;28;20396;-83
2022/09/20 09:27:09;;;;;;;6.63;1.37;;;;;;;15.02;59.89;101087.34;5096611;28;20430;-83
2022/09/20 09:29:34;;;;;;;3.40;0.97;;;;;;;15.19;60.01;101079.84;5092135;28;20558;-81
2022/09/20 09:32:22;;;;;;;5.30;0.97;;;;;;;15.64;58.46;101075.88;5103975;28;20389;-77
2022/09/20 09:34:47;;;;;;;6.40;1.50;;;;;;;15.81;56.83;101079.22;5101123;28;20436;-78
2022/09/20 09:37:31;;;;;;;6.43;1.42;;;;;;;16.02;56.51;101075.53;5088508;28;20900;-82
2022/09/20 09:40:17;;;;;;;3.60;1.50;;;;;;;16.48;55.67;101076.53;5107130;27;20907;-81
2022/09/20 09:42:53;;;;;;;4.15;1.17;;;;;;;16.92;55.04;101066.84;5107126;28;20482;-81
2022/09/20 09:45:29;;;;;;;5.93;1.00;;;;;;;17.06;53.61;101070.66;5084541;28;20526;-81
2022/09/20 09:47:56;;;;;;;5.07;1.30;;;;;;;16.98;53.61;101071.22;5091955;28;20405;-81
2022/09/20 09:50:32;;;;;;;2.17;0.82;;;;;;;17.08;53.74;101073.13;5111556;28;20473;-81
2022/09/20 09:53:21;;;;;;;3.70;1.10;;;;;;;18.67;50.57;101065.94;5093440;28;20384;-81
2022/09/20 09:56:05;;;;;;;6.40;1.30;;;;;;;20.19;46.58;101066.19;5101331;28;20451;-81
2022/09/20 09:58:50;;;;;;;2.83;0.88;;;;;;;19.79;46.92;101066.66;5114320;28;20907;-81
2022/09/20 10:01:44;;;;;;;3.33;0.90;;;;;;;18.72;48.43;101062.31;5095900;28;20491;-81
2022/09/20 10:04:19;;;;;;;3.08;1.05;;;;;;;17.91;50.33;101059.94;5086900;28;20392;-81
2022/09/20 10:07:08;;;;;;;4.25;0.80;;;;;;;17.80;50.12;101061.03;5097752;28;20385;-82
2022/09/20 10:09:54;;;;;;;2.65;1.10;;;;;;;18.30;49.29;101058.13;5095323;28;20449;-81
2022/09/20 10:12:35;;;;;;;6.68;1.55;;;;;;;17.82;50.26;101058.84;5101000;28;20712;-81
2022/09/20 10:15:20;;;;;;;9.05;1.20;;;;;;;17.54;51.37;101060.25;5090810;28;20398;-81
2022/09/20 10:17:54;;;;;;;4.15;1.30;;;;;;;17.49;51.71;101055.59;5069322;28;20495;-81
2022/09/20 10:20:56;;;;;;;3.40;1.05;;;;;;;17.80;49.83;101063.78;5085622;28;20405;-81
2022/09/20 10:23:50;;;;;;;2.08;0.75;;;;;;;17.90;49.68;101066.50;5078694;28;20425;-81
2022/09/20 10:26:44;;;;;;;3.03;1.20;;;;;;;17.66;50.64;101065.44;5094947;28;20431;-81
2022/09/20 10:29:33;;;;;;;5.72;0.98;;;;;;;17.44;50.88;101055.59;5095026;28;20483;-81
2022/09/20 10:32:25;;;;;;;1.55;0.82;;;;;;;17.31;51.09;101049.84;5113645;28;20380;-81
2022/09/20 10:35:19;;;;;;;2.50;0.70;;;;;;;17.11;50.49;101053.41;5099499;28;20400;-81
2022/09/20 10:38:22;;;;;;;3.58;1.05;;;;;;;16.91;50.35;101050.66;5091503;28;20389;-82
2022/09/20 10:44:09;;;;;;;2.63;0.80;;;;;;;17.07;51.39;101050.41;5099072;28;20501;-81
2022/09/20 10:47:14;;;;;;;3.30;1.00;;;;;;;17.24;50.94;101057.53;5117686;27;20402;-81
2022/09/20 10:49:48;;;;;;;3.85;1.10;;;;;;;17.20;51.20;101056.41;5041949;28;20398;-81
2022/09/20 10:52:48;;;;;;;2.43;0.87;;;;;;;17.16;51.44;101053.41;5107477;27;20896;-82
2022/09/20 10:55:19;;;;;;;2.75;0.95;;;;;;;17.30;51.04;101053.69;5034792;28;20933;-82
2022/09/20 10:58:19;;;;;;;3.47;1.38;;;;;;;17.42;50.48;101048.75;5088446;28;20384;-81
2022/09/20 11:01:00;;;;;;;3.45;1.13;;;;;;;17.27;50.72;101052.31;5094574;28;20388;-82
2022/09/20 11:03:28;;;;;;;2.78;0.73;;;;;;;17.29;50.70;101055.59;5093385;28;20900;-83
2022/09/20 11:06:05;;;;;;;3.83;0.93;;;;;;;17.22;50.51;101054.25;5104763;28;20400;-82
2022/09/20 11:08:34;;;;;;;4.30;1.10;;;;;;;17.06;50.51;101054.22;5061585;28;20392;-82
2022/09/20 11:11:07;;;;;;;1.40;0.70;;;;;;;16.92;51.08;101058.63;5094726;28;20724;-83
2022/09/20 11:13:41;;;;;;;2.63;0.95;;;;;;;16.80;50.63;101051.75;5096423;28;20404;-83
2022/09/20 11:16:18;;;;;;;4.28;1.02;;;;;;;16.69;50.59;101058.31;5085452;28;20414;-81
2022/09/20 11:18:49;;;;;;;4.47;1.10;;;;;;;16.59;51.01;101050.91;5084081;28;20429;-81
2022/09/20 11:21:27;;;;;;;2.42;0.80;;;;;;;16.55;51.07;101047.88;5092133;28;20457;-81
2022/09/20 11:24:04;;;;;;;6.50;0.90;;;;;;;16.70;52.39;101044.34;5112472;28;20894;-81
2022/09/20 11:26:36;;;;;;;3.42;1.20;;;;;;;17.91;51.75;101054.44;5085717;28;20909;-79
2022/09/20 11:29:26;;;;;;;3.67;0.88;;;;;;;19.24;48.65;101051.47;5105453;27;20915;-80
2022/09/20 11:31:54;;;;;;;4.93;1.20;;;;;;;18.99;47.31;101055.28;5083306;28;20408;-79
2022/09/20 11:34:24;;;;;;;2.45;1.10;;;;;;;18.62;47.09;101053.03;5076144;28;20767;-82
2022/09/20 11:36:59;;;;;;;2.88;1.05;;;;;;;18.58;47.72;101051.97;5088347;28;20397;-82
2022/09/20 11:39:34;;;;;;;4.28;0.98;;;;;;;19.71;45.43;101055.47;5052974;28;20465;-78
2022/09/20 11:42:03;;;;;;;4.63;0.73;;;;;;;20.78;43.30;101059.34;5092437;28;20491;-80
2022/09/20 11:44:28;;;;;;;3.33;0.95;;;;;;;20.59;42.29;101056.59;5086481;28;20825;-77
2022/09/20 11:47:02;;;;;;;2.72;1.00;;;;;;;19.62;43.67;101064.38;5089392;28;20407;-81
2022/09/20 11:49:50;;;;;;;2.67;0.77;;;;;;;19.01;44.84;101060.47;5086168;28;20402;-81
2022/09/20 11:52:41;;;;;;;6.82;1.58;;;;;;;18.57;45.56;101058.53;5035087;28;21122;-81
2022/09/20 11:55:16;;;;;;;3.30;0.93;;;;;;;18.30;46.23;101054.56;5094571;28;20401;-81
2022/09/20 11:57:41;;;;;;;4.10;0.85;;;;;;;18.31;46.16;101054.25;5068936;28;20406;-78
2022/09/20 12:00:08;;;;;;;3.63;1.00;;;;;;;18.35;46.57;101055.34;5088576;28;20504;-80
2022/09/20 12:02:40;;;;;;;1.88;1.00;;;;;;;18.52;46.24;101050.34;5088431;28;20472;-81
2022/09/20 12:05:22;;;;;;;6.57;1.13;;;;;;;18.94;45.23;101054.47;5084120;28;20421;-80
2022/09/20 12:07:53;;;;;;;4.10;0.70;;;;;;;20.88;42.04;101053.69;5069611;28;20406;-80
2022/09/20 12:10:29;;;;;;;2.15;0.93;;;;;;;21.65;39.68;101043.03;5087556;28;20422;-80
2022/09/20 12:12:58;;;;;;;2.80;0.77;;;;;;;21.48;39.84;101037.28;5085380;28;20426;-80
2022/09/20 12:15:28;;;;;;;3.33;1.20;;;;;;;21.00;39.88;101037.53;5099507;28;20402;-80
2022/09/20 12:17:57;;;;;;;3.38;0.93;;;;;;;22.68;38.10;101033.22;5087544;28;20459;-80
2022/09/20 12:20:34;;;;;;;2.63;0.80;;;;;;;23.04;37.53;101034.00;5100376;28;20483;-79
2022/09/20 12:23:37;;;;;;;1.17;0.50;;;;;;;24.53;34.93;101030.47;5099957;28;20449;-80
2022/09/20 12:26:05;;;;;;;4.55;0.63;;;;;;;25.11;33.89;101028.06;5088881;28;20865;-80
2022/09/20 12:28:38;;;;;;;4.43;0.82;;;;;;;25.29;33.93;101024.09;5068711;28;20405;-80
2022/09/20 12:31:19;;;;;;;2.70;0.85;;;;;;;25.60;33.53;101029.44;5109067;28;20396;-80